KOBE

Okeechobee County Airport

Okeechobee, Florida, USA
METAR KOBE 162255Z AUTO 00000KT 10SM CLR 15/08 A3019 RMK AO2
Observed Flight Rules
Jan-16 @ 22:55 UTC (18 minutes ago) Visual Flight Rules
Visibility Clouds
10 miles
  • Clear skies
Temperatures Readings
Current 15°C / 59°F
Dewpoint 8°C / 46°F
Humidity 63%
Altimeter 30.19" Hg
Pressure 1022.32 hPa
Elevation 11
METAR KOBE 162255Z AUTO 00000KT 10SM CLR 15/08 A3019 RMK AO2
Observed Flight Rules
Jan-16 @ 22:55 UTC
(18 minutes ago)
VFR
Clouds
  • Clear skies
Temperature Dewpoint
15°C / 59°F 8°C / 46°F
Humidity Altimeter Pressure
63% 30.19" Hg 1022.32 hPa